EDW34N LSZH-MDPC
Flight info
| Callsign | EDW34N |
|---|---|
| Flight time | N/A |
| Altitude | 33000 |
| Route | VEBIT T50 ROTOS Z669 ULMES DCT VADAR DCT NINTU/N0480F370 DCT MEBAK/N0478F380 DCT TIS DCT VALKU/N0482F390 DCT PECNO DCT GALOF/N0487F380 DCT RIVAK/M084F380 DCT SIVIR DCT 46N015W 46N020W 41N030W/M084F400 36N040W 31N050W DCT FIVZE DCT OPAUL/N0477F400 DCT KATOK KATOK2B |
| Aircraft | A359/H-SDE2E3GHIJ3J4J5LM1ORWXY/LB1D1 |
Departure
| Time | N/A |
|---|---|
| Airport | Zürich Airport (LSZH) |
Arrival
| Time | 2026-05-03 21:57 |
|---|---|
| Airport | Punta Cana International Airport (MDPC) |
| Time | Latitude | Longitude | Altitude | Speed | Heading |
|---|---|---|---|---|---|
| 2026-05-03 21:20 | 20.53033 | -65.70384 | 40069 ft | 470 kts | 236° |
| 2026-05-03 21:20 | 20.51030 | -65.73144 | 40067 ft | 471 kts | 236° |
| 2026-05-03 21:21 | 20.47015 | -65.78669 | 40066 ft | 471 kts | 236° |
| 2026-05-03 21:21 | 20.43026 | -65.84153 | 40064 ft | 471 kts | 236° |
| 2026-05-03 21:22 | 20.39004 | -65.89677 | 40063 ft | 471 kts | 236° |
| 2026-05-03 21:22 | 20.34980 | -65.95199 | 40064 ft | 471 kts | 236° |
| 2026-05-03 21:23 | 20.30973 | -66.00692 | 40061 ft | 471 kts | 236° |
| 2026-05-03 21:23 | 20.26952 | -66.06199 | 40061 ft | 470 kts | 236° |
| 2026-05-03 21:24 | 20.22924 | -66.11711 | 40061 ft | 471 kts | 236° |
| 2026-05-03 21:24 | 20.18920 | -66.17186 | 40059 ft | 471 kts | 236° |
| 2026-05-03 21:25 | 20.14902 | -66.22674 | 40059 ft | 470 kts | 236° |
| 2026-05-03 21:25 | 20.10865 | -66.28183 | 40059 ft | 470 kts | 236° |
| 2026-05-03 21:26 | 20.06866 | -66.33634 | 40056 ft | 469 kts | 236° |
| 2026-05-03 21:26 | 20.02858 | -66.39092 | 40056 ft | 469 kts | 236° |
| 2026-05-03 21:27 | 19.98925 | -66.44445 | 40056 ft | 469 kts | 236° |
| 2026-05-03 21:27 | 19.94898 | -66.49921 | 40042 ft | 469 kts | 236° |
| 2026-05-03 21:28 | 19.92879 | -66.52664 | 39823 ft | 474 kts | 236° |
| 2026-05-03 21:28 | 19.90836 | -66.55442 | 39587 ft | 478 kts | 236° |
| 2026-05-03 21:28 | 19.88781 | -66.58232 | 39356 ft | 480 kts | 235° |
| 2026-05-03 21:28 | 19.86723 | -66.61022 | 39135 ft | 480 kts | 235° |
| 2026-05-03 21:29 | 19.84658 | -66.63823 | 38896 ft | 481 kts | 235° |
| 2026-05-03 21:29 | 19.82602 | -66.66608 | 38661 ft | 483 kts | 235° |
| 2026-05-03 21:29 | 19.80526 | -66.69421 | 38394 ft | 484 kts | 235° |
| 2026-05-03 21:29 | 19.78446 | -66.72238 | 38122 ft | 484 kts | 234° |
| 2026-05-03 21:30 | 19.76386 | -66.75026 | 37851 ft | 485 kts | 234° |
| 2026-05-03 21:30 | 19.74290 | -66.77861 | 37602 ft | 486 kts | 234° |
| 2026-05-03 21:30 | 19.72200 | -66.80687 | 37357 ft | 486 kts | 234° |
| 2026-05-03 21:30 | 19.70106 | -66.83517 | 37092 ft | 487 kts | 234° |
| 2026-05-03 21:31 | 19.68038 | -66.86311 | 36816 ft | 487 kts | 234° |
| 2026-05-03 21:31 | 19.65950 | -66.89129 | 36241 ft | 483 kts | 234° |
| 2026-05-03 21:31 | 19.63873 | -66.91934 | 35630 ft | 482 kts | 233° |
| 2026-05-03 21:31 | 19.61805 | -66.94722 | 35088 ft | 478 kts | 233° |
| 2026-05-03 21:32 | 19.59754 | -66.97488 | 34548 ft | 475 kts | 233° |
| 2026-05-03 21:32 | 19.57718 | -67.00233 | 34008 ft | 472 kts | 232° |
| 2026-05-03 21:32 | 19.55720 | -67.02923 | 33429 ft | 468 kts | 233° |
| 2026-05-03 21:32 | 19.53711 | -67.05628 | 32886 ft | 464 kts | 232° |
| 2026-05-03 21:33 | 19.51719 | -67.08309 | 32354 ft | 460 kts | 232° |
| 2026-05-03 21:33 | 19.49744 | -67.10967 | 31834 ft | 456 kts | 232° |
| 2026-05-03 21:33 | 19.47780 | -67.13608 | 31319 ft | 452 kts | 232° |
| 2026-05-03 21:33 | 19.45856 | -67.16195 | 30807 ft | 449 kts | 232° |
| 2026-05-03 21:34 | 19.43919 | -67.18798 | 30289 ft | 446 kts | 232° |
| 2026-05-03 21:34 | 19.41997 | -67.21380 | 29725 ft | 443 kts | 232° |
| 2026-05-03 21:34 | 19.40116 | -67.23904 | 29202 ft | 439 kts | 232° |
| 2026-05-03 21:34 | 19.38227 | -67.26439 | 28690 ft | 435 kts | 232° |
| 2026-05-03 21:35 | 19.36373 | -67.28926 | 28187 ft | 431 kts | 232° |
| 2026-05-03 21:35 | 19.34510 | -67.31424 | 27675 ft | 428 kts | 232° |
| 2026-05-03 21:35 | 19.32665 | -67.33897 | 27164 ft | 425 kts | 232° |
| 2026-05-03 21:35 | 19.30855 | -67.36322 | 26660 ft | 422 kts | 232° |
| 2026-05-03 21:36 | 19.29039 | -67.38755 | 26149 ft | 419 kts | 232° |
| 2026-05-03 21:36 | 19.27232 | -67.41174 | 25632 ft | 417 kts | 232° |
| 2026-05-03 21:36 | 19.25432 | -67.43582 | 25119 ft | 415 kts | 232° |
| 2026-05-03 21:36 | 19.23641 | -67.45977 | 24600 ft | 414 kts | 232° |
| 2026-05-03 21:37 | 19.21877 | -67.48337 | 24082 ft | 413 kts | 231° |
| 2026-05-03 21:37 | 19.20081 | -67.50736 | 23544 ft | 412 kts | 231° |
| 2026-05-03 21:37 | 19.18318 | -67.53092 | 22953 ft | 410 kts | 232° |
| 2026-05-03 21:37 | 19.16546 | -67.55458 | 22416 ft | 406 kts | 232° |
| 2026-05-03 21:38 | 19.14816 | -67.57767 | 21886 ft | 402 kts | 232° |
| 2026-05-03 21:38 | 19.13087 | -67.60075 | 21360 ft | 397 kts | 232° |
| 2026-05-03 21:38 | 19.11369 | -67.62368 | 20834 ft | 393 kts | 232° |
| 2026-05-03 21:38 | 19.09694 | -67.64600 | 20317 ft | 390 kts | 232° |
| 2026-05-03 21:39 | 19.08007 | -67.66849 | 19797 ft | 386 kts | 232° |
| 2026-05-03 21:39 | 19.06343 | -67.69067 | 19279 ft | 382 kts | 232° |
| 2026-05-03 21:39 | 19.04693 | -67.71265 | 18765 ft | 379 kts | 232° |
| 2026-05-03 21:39 | 19.03083 | -67.73409 | 18253 ft | 375 kts | 232° |
| 2026-05-03 21:40 | 19.01465 | -67.75564 | 17690 ft | 371 kts | 232° |
| 2026-05-03 21:40 | 18.99859 | -67.77701 | 17175 ft | 366 kts | 232° |
| 2026-05-03 21:40 | 18.98301 | -67.79774 | 16678 ft | 361 kts | 232° |
| 2026-05-03 21:40 | 18.96735 | -67.81856 | 16176 ft | 357 kts | 232° |
| 2026-05-03 21:41 | 18.95208 | -67.83886 | 15685 ft | 354 kts | 232° |
| 2026-05-03 21:41 | 18.93676 | -67.85923 | 15186 ft | 351 kts | 232° |
| 2026-05-03 21:41 | 18.92159 | -67.87939 | 14797 ft | 346 kts | 232° |
| 2026-05-03 21:41 | 18.90711 | -67.89861 | 14666 ft | 332 kts | 231° |
| 2026-05-03 21:42 | 18.89298 | -67.91738 | 14530 ft | 318 kts | 231° |
| 2026-05-03 21:42 | 18.87945 | -67.93534 | 14383 ft | 306 kts | 231° |
| 2026-05-03 21:42 | 18.86643 | -67.95262 | 14242 ft | 295 kts | 231° |
| 2026-05-03 21:42 | 18.85389 | -67.96926 | 14037 ft | 287 kts | 231° |
| 2026-05-03 21:43 | 18.84148 | -67.98572 | 13670 ft | 285 kts | 231° |
| 2026-05-03 21:43 | 18.83019 | -68.00277 | 13287 ft | 283 kts | 242° |
| 2026-05-03 21:43 | 18.82204 | -68.02162 | 12935 ft | 281 kts | 247° |
| 2026-05-03 21:43 | 18.81470 | -68.04073 | 12617 ft | 280 kts | 248° |
| 2026-05-03 21:44 | 18.80752 | -68.05955 | 12282 ft | 278 kts | 248° |
| 2026-05-03 21:44 | 18.80027 | -68.07844 | 11988 ft | 277 kts | 247° |
| 2026-05-03 21:44 | 18.79299 | -68.09730 | 11672 ft | 276 kts | 247° |
| 2026-05-03 21:44 | 18.78572 | -68.11611 | 11358 ft | 275 kts | 247° |
| 2026-05-03 21:45 | 18.77849 | -68.13480 | 11045 ft | 275 kts | 247° |
| 2026-05-03 21:45 | 18.77134 | -68.15322 | 10749 ft | 274 kts | 246° |
| 2026-05-03 21:45 | 18.76410 | -68.17189 | 10433 ft | 274 kts | 246° |
| 2026-05-03 21:45 | 18.75688 | -68.19048 | 10126 ft | 273 kts | 246° |
| 2026-05-03 21:46 | 18.75211 | -68.20276 | 9912 ft | 273 kts | 246° |
| 2026-05-03 21:46 | 18.74485 | -68.22146 | 9580 ft | 275 kts | 246° |
| 2026-05-03 21:46 | 18.73755 | -68.24025 | 9259 ft | 275 kts | 246° |
| 2026-05-03 21:46 | 18.73035 | -68.25879 | 9045 ft | 269 kts | 246° |
| 2026-05-03 21:47 | 18.72350 | -68.27644 | 8911 ft | 258 kts | 246° |
| 2026-05-03 21:47 | 18.71679 | -68.29369 | 8716 ft | 251 kts | 246° |
| 2026-05-03 21:47 | 18.71016 | -68.31074 | 8432 ft | 249 kts | 246° |
| 2026-05-03 21:47 | 18.70359 | -68.32764 | 8162 ft | 249 kts | 246° |
| 2026-05-03 21:48 | 18.69694 | -68.34448 | 7898 ft | 248 kts | 245° |
| 2026-05-03 21:48 | 18.69025 | -68.36120 | 7632 ft | 247 kts | 245° |
| 2026-05-03 21:48 | 18.68357 | -68.37792 | 7365 ft | 247 kts | 245° |
| 2026-05-03 21:48 | 18.67691 | -68.39460 | 7105 ft | 246 kts | 245° |
| 2026-05-03 21:49 | 18.67030 | -68.41127 | 6914 ft | 246 kts | 245° |
| 2026-05-03 21:49 | 18.66375 | -68.42777 | 6593 ft | 247 kts | 244° |
| 2026-05-03 21:49 | 18.65706 | -68.44453 | 6236 ft | 248 kts | 244° |
| 2026-05-03 21:49 | 18.65036 | -68.46135 | 5884 ft | 248 kts | 244° |
| 2026-05-03 21:50 | 18.64371 | -68.47804 | 5565 ft | 246 kts | 244° |
| 2026-05-03 21:50 | 18.63712 | -68.49459 | 5253 ft | 244 kts | 244° |
| 2026-05-03 21:50 | 18.63058 | -68.51101 | 4982 ft | 241 kts | 244° |
| 2026-05-03 21:50 | 18.62418 | -68.52709 | 4698 ft | 239 kts | 243° |
| 2026-05-03 21:51 | 18.61775 | -68.54318 | 4387 ft | 236 kts | 244° |
| 2026-05-03 21:51 | 18.61036 | -68.55844 | 4100 ft | 230 kts | 230° |
| 2026-05-03 21:51 | 18.59810 | -68.56830 | 3937 ft | 220 kts | 197° |
| 2026-05-03 21:51 | 18.58327 | -68.56958 | 3757 ft | 213 kts | 168° |
| 2026-05-03 21:52 | 18.56885 | -68.56589 | 3520 ft | 213 kts | 162° |
| 2026-05-03 21:52 | 18.55485 | -68.56149 | 3289 ft | 213 kts | 162° |
| 2026-05-03 21:52 | 18.54141 | -68.55501 | 3040 ft | 213 kts | 141° |
| 2026-05-03 21:52 | 18.53388 | -68.54189 | 2975 ft | 209 kts | 105° |
| 2026-05-03 21:53 | 18.53245 | -68.52696 | 2857 ft | 202 kts | 93° |
| 2026-05-03 21:53 | 18.53440 | -68.51245 | 2590 ft | 198 kts | 74° |
| 2026-05-03 21:53 | 18.53871 | -68.49904 | 2313 ft | 188 kts | 76° |
| 2026-05-03 21:53 | 18.54206 | -68.48624 | 2044 ft | 177 kts | 77° |
| 2026-05-03 21:54 | 18.54528 | -68.47425 | 1809 ft | 164 kts | 76° |
| 2026-05-03 21:54 | 18.54834 | -68.46316 | 1592 ft | 152 kts | 76° |
| 2026-05-03 21:54 | 18.55122 | -68.45262 | 1403 ft | 147 kts | 75° |
| 2026-05-03 21:54 | 18.55398 | -68.44255 | 1222 ft | 139 kts | 75° |
| 2026-05-03 21:55 | 18.55659 | -68.43315 | 1044 ft | 133 kts | 75° |
| 2026-05-03 21:55 | 18.55912 | -68.42369 | 845 ft | 133 kts | 76° |
| 2026-05-03 21:55 | 18.56163 | -68.41426 | 683 ft | 134 kts | 76° |
| 2026-05-03 21:55 | 18.56422 | -68.40493 | 513 ft | 135 kts | 76° |
| 2026-05-03 21:56 | 18.56680 | -68.39545 | 311 ft | 134 kts | 76° |
| 2026-05-03 21:56 | 18.56943 | -68.38603 | 156 ft | 133 kts | 76° |
| 2026-05-03 21:56 | 18.57200 | -68.37669 | 54 ft | 126 kts | 74° |
| 2026-05-03 21:56 | 18.57402 | -68.36944 | 51 ft | 83 kts | 73° |
| 2026-05-03 21:57 | 18.57522 | -68.36513 | 50 ft | 39 kts | 73° |
| 2026-05-03 21:57 | 18.57586 | -68.36279 | 48 ft | 26 kts | 76° |
| 2026-05-03 21:57 | 18.57601 | -68.36135 | 53 ft | 19 kts | 92° |
| 2026-05-03 21:57 | 18.57586 | -68.36009 | 51 ft | 17 kts | 102° |
| 2026-05-03 21:58 | 18.57552 | -68.35911 | 48 ft | 13 kts | 121° |
| 2026-05-03 21:58 | 18.57484 | -68.35850 | 51 ft | 15 kts | 158° |
| 2026-05-03 21:58 | 18.57374 | -68.35832 | 50 ft | 17 kts | 175° |
| 2026-05-03 21:58 | 18.57249 | -68.35825 | 49 ft | 19 kts | 176° |
| 2026-05-03 21:59 | 18.57109 | -68.35817 | 51 ft | 20 kts | 176° |
| 2026-05-03 21:59 | 18.57024 | -68.35812 | 50 ft | 8 kts | 176° |
| 2026-05-03 21:59 | 18.56978 | -68.35847 | 51 ft | 10 kts | 249° |
| 2026-05-03 21:59 | 18.56964 | -68.35931 | 49 ft | 13 kts | 263° |
| 2026-05-03 22:00 | 18.56954 | -68.36042 | 56 ft | 17 kts | 265° |
| 2026-05-03 22:00 | 18.56942 | -68.36177 | 54 ft | 20 kts | 264° |
| 2026-05-03 22:00 | 18.56929 | -68.36331 | 53 ft | 22 kts | 265° |
| 2026-05-03 22:00 | 18.56916 | -68.36490 | 57 ft | 19 kts | 264° |
| 2026-05-03 22:01 | 18.56905 | -68.36613 | 52 ft | 15 kts | 265° |
| 2026-05-03 22:01 | 18.56897 | -68.36702 | 52 ft | 9 kts | 264° |
| 2026-05-03 22:01 | 18.56869 | -68.36745 | 51 ft | 7 kts | 210° |
| 2026-05-03 22:01 | 18.56813 | -68.36752 | 55 ft | 10 kts | 177° |
| 2026-05-03 22:02 | 18.56736 | -68.36753 | 57 ft | 11 kts | 181° |
| 2026-05-03 22:02 | 18.56653 | -68.36755 | 52 ft | 13 kts | 181° |
| 2026-05-03 22:02 | 18.56564 | -68.36757 | 52 ft | 11 kts | 185° |
| 2026-05-03 22:02 | 18.56521 | -68.36809 | 51 ft | 10 kts | 256° |
| 2026-05-03 22:03 | 18.56513 | -68.36875 | 54 ft | 9 kts | 264° |
| 2026-05-03 22:03 | 18.56507 | -68.36934 | 51 ft | 8 kts | 264° |
| 2026-05-03 22:03 | 18.56502 | -68.36985 | 51 ft | 6 kts | 258° |
| 2026-05-03 22:03 | 18.56473 | -68.37007 | 52 ft | 6 kts | 197° |
| 2026-05-03 22:04 | 18.56439 | -68.36993 | 50 ft | 5 kts | 135° |
| 2026-05-03 22:04 | 18.56429 | -68.36955 | 53 ft | 5 kts | 92° |
| 2026-05-03 22:04 | 18.56430 | -68.36926 | 52 ft | 0 kts | 88° |